Terminal Aerodrome Forecast
Issued by NWS

Home | Current Version | Previous Version | Text Only | Print | Product List | Glossary On
Versions: 1 2 3 4 5 6 7 8 9 10 11 12
000
FTUS43 KGLD 271741
TAFMCK
TAF
KMCK 271741Z 2718/2818 34013KT P6SM FEW035 OVC045
     FM280300 32006KT P6SM SCT050 BKN150
     FM280500 29006KT P6SM FEW200
     FM281300 31010KT P6SM FEW200=

USA.gov is the U.S. government's official web portal to all federal, state and local government web resources and services.